KUGN/UGN METAR and TAF weather

Enter ICAO airport designator
Station Type Date Time Source
KUGN METAR 2021/05/11 14:55 UTC NOAA

KUGN 111455Z 32004KT 10SM BKN043 10/M01 A3035 RMK AO2 SLP283 T01001006 50011


Station Type Date Time Source
KUGN Decoded METAR 2021/05/11 14:55 UTC NOAA

CHICAGO/WAUKEGAN REGIONAL, IL, United States (KUGN) 42-25N 087-52W
May 11, 2021 - 10:55 AM EDT / 2021.05.11 1455 UTC
Wind: from the NW (320 degrees) at 5 MPH (4 KT):0
Visibility: 10 mile(s):0
Sky conditions: mostly cloudy
Temperature: 50.0 F (10.0 C)
Dew Point: 30.9 F (-0.6 C)
Relative Humidity: 47%
Pressure (altimeter): 30.35 in. Hg (1027 hPa)
Pressure tendency: 0.03 inches (1.1 hPa) higher than three hours ago
ob: KUGN 111455Z 32004KT 10SM BKN043 10/M01 A3035 RMK AO2 SLP283 T01001006 50011
cycle: 15

Station Type Date Time Source
KUGN TAF UTC NOAA

Error!

Example: see airport list